sensor_id;sensor_type;location;lat;lon;timestamp;temperature;humidity
40287;DHT22;25998;46.604;13.610;2023-03-08T00:01:44;5.40;99.90
40287;DHT22;25998;46.604;13.610;2023-03-08T00:04:56;5.40;99.90
40287;DHT22;25998;46.604;13.610;2023-03-08T00:08:07;5.60;99.90
40287;DHT22;25998;46.604;13.610;2023-03-08T00:11:20;5.50;99.90
40287;DHT22;25998;46.604;13.610;2023-03-08T00:14:31;5.50;99.90
40287;DHT22;25998;46.604;13.610;2023-03-08T00:17:42;5.40;99.90
40287;DHT22;25998;46.604;13.610;2023-03-08T00:24:13;5.30;99.90
40287;DHT22;25998;46.604;13.610;2023-03-08T00:27:26;5.30;99.90
40287;DHT22;25998;46.604;13.610;2023-03-08T00:30:37;5.40;99.90
40287;DHT22;25998;46.604;13.610;2023-03-08T00:33:51;5.40;99.90
40287;DHT22;25998;46.604;13.610;2023-03-08T00:37:03;5.40;99.90
40287;DHT22;25998;46.604;13.610;2023-03-08T00:40:14;5.50;99.90
40287;DHT22;25998;46.604;13.610;2023-03-08T00:43:26;5.10;99.90
40287;DHT22;25998;46.604;13.610;2023-03-08T00:46:37;4.90;99.90
40287;DHT22;25998;46.604;13.610;2023-03-08T00:49:48;5.10;99.90
40287;DHT22;25998;46.604;13.610;2023-03-08T00:52:59;5.00;99.90
40287;DHT22;25998;46.604;13.610;2023-03-08T00:56:10;4.90;99.90
40287;DHT22;25998;46.604;13.610;2023-03-08T00:59:21;4.80;99.90
40287;DHT22;25998;46.604;13.610;2023-03-08T01:02:32;4.80;99.90
40287;DHT22;25998;46.604;13.610;2023-03-08T01:05:45;4.80;99.90
40287;DHT22;25998;46.604;13.610;2023-03-08T01:08:57;4.80;99.90
40287;DHT22;25998;46.604;13.610;2023-03-08T01:12:07;4.90;99.90
40287;DHT22;25998;46.604;13.610;2023-03-08T01:15:18;4.90;99.90
40287;DHT22;25998;46.604;13.610;2023-03-08T01:18:29;4.80;99.90
40287;DHT22;25998;46.604;13.610;2023-03-08T01:21:40;4.90;99.90
40287;DHT22;25998;46.604;13.610;2023-03-08T01:24:51;4.80;99.90
40287;DHT22;25998;46.604;13.610;2023-03-08T01:28:02;4.70;99.90
40287;DHT22;25998;46.604;13.610;2023-03-08T01:31:17;4.70;99.90
40287;DHT22;25998;46.604;13.610;2023-03-08T01:34:29;4.60;99.90
40287;DHT22;25998;46.604;13.610;2023-03-08T01:37:42;4.70;99.90
40287;DHT22;25998;46.604;13.610;2023-03-08T01:40:58;4.60;99.90
40287;DHT22;25998;46.604;13.610;2023-03-08T01:44:17;4.70;99.90
40287;DHT22;25998;46.604;13.610;2023-03-08T01:47:30;4.80;99.90
40287;DHT22;25998;46.604;13.610;2023-03-08T01:50:43;4.80;99.90
40287;DHT22;25998;46.604;13.610;2023-03-08T01:54:03;4.60;99.90
40287;DHT22;25998;46.604;13.610;2023-03-08T01:57:19;4.50;99.90
40287;DHT22;25998;46.604;13.610;2023-03-08T02:00:31;4.50;99.90
40287;DHT22;25998;46.604;13.610;2023-03-08T02:03:43;4.40;99.90
40287;DHT22;25998;46.604;13.610;2023-03-08T02:06:54;4.30;99.90
40287;DHT22;25998;46.604;13.610;2023-03-08T02:10:06;4.30;99.90
40287;DHT22;25998;46.604;13.610;2023-03-08T02:13:19;4.30;99.90
40287;DHT22;25998;46.604;13.610;2023-03-08T02:16:30;4.30;99.90
40287;DHT22;25998;46.604;13.610;2023-03-08T02:19:51;4.20;99.90
40287;DHT22;25998;46.604;13.610;2023-03-08T02:26:19;4.20;99.90
40287;DHT22;25998;46.604;13.610;2023-03-08T02:29:30;4.20;99.90
40287;DHT22;25998;46.604;13.610;2023-03-08T02:32:42;4.40;99.90
40287;DHT22;25998;46.604;13.610;2023-03-08T02:35:53;4.50;99.90
40287;DHT22;25998;46.604;13.610;2023-03-08T02:39:03;4.50;99.90
40287;DHT22;25998;46.604;13.610;2023-03-08T02:42:14;4.40;99.90
40287;DHT22;25998;46.604;13.610;2023-03-08T02:45:25;4.40;99.90
40287;DHT22;25998;46.604;13.610;2023-03-08T02:48:36;4.20;99.90
40287;DHT22;25998;46.604;13.610;2023-03-08T02:51:47;4.10;99.90
40287;DHT22;25998;46.604;13.610;2023-03-08T02:54:57;4.10;99.90
40287;DHT22;25998;46.604;13.610;2023-03-08T02:58:09;4.10;99.90
40287;DHT22;25998;46.604;13.610;2023-03-08T03:01:21;4.00;99.90
40287;DHT22;25998;46.604;13.610;2023-03-08T03:04:33;4.10;99.90
40287;DHT22;25998;46.604;13.610;2023-03-08T03:07:43;4.20;99.90
40287;DHT22;25998;46.604;13.610;2023-03-08T03:10:54;4.00;99.90
40287;DHT22;25998;46.604;13.610;2023-03-08T03:14:05;4.00;99.90
40287;DHT22;25998;46.604;13.610;2023-03-08T03:17:16;4.00;99.90
40287;DHT22;25998;46.604;13.610;2023-03-08T03:20:30;4.00;99.90
40287;DHT22;25998;46.604;13.610;2023-03-08T03:23:41;4.00;99.90
40287;DHT22;25998;46.604;13.610;2023-03-08T03:26:52;4.00;99.90
40287;DHT22;25998;46.604;13.610;2023-03-08T03:30:05;4.10;99.90
40287;DHT22;25998;46.604;13.610;2023-03-08T03:33:16;4.00;99.90
40287;DHT22;25998;46.604;13.610;2023-03-08T03:36:27;3.90;99.90
40287;DHT22;25998;46.604;13.610;2023-03-08T03:39:38;4.00;99.90
40287;DHT22;25998;46.604;13.610;2023-03-08T03:42:49;3.90;99.90
40287;DHT22;25998;46.604;13.610;2023-03-08T03:46:03;3.90;99.90
40287;DHT22;25998;46.604;13.610;2023-03-08T03:49:14;3.80;99.90
40287;DHT22;25998;46.604;13.610;2023-03-08T03:52:25;3.80;99.90
40287;DHT22;25998;46.604;13.610;2023-03-08T03:55:35;3.80;99.90
40287;DHT22;25998;46.604;13.610;2023-03-08T03:58:47;3.80;99.90
40287;DHT22;25998;46.604;13.610;2023-03-08T04:01:58;3.70;99.90
40287;DHT22;25998;46.604;13.610;2023-03-08T04:05:09;3.70;99.90
40287;DHT22;25998;46.604;13.610;2023-03-08T04:08:20;3.70;99.90
40287;DHT22;25998;46.604;13.610;2023-03-08T04:11:36;3.80;99.90
40287;DHT22;25998;46.604;13.610;2023-03-08T04:14:47;3.70;99.90
40287;DHT22;25998;46.604;13.610;2023-03-08T04:17:58;3.60;99.90
40287;DHT22;25998;46.604;13.610;2023-03-08T04:21:10;3.60;99.90
40287;DHT22;25998;46.604;13.610;2023-03-08T04:24:21;3.60;99.90
40287;DHT22;25998;46.604;13.610;2023-03-08T04:27:32;3.60;99.90
40287;DHT22;25998;46.604;13.610;2023-03-08T04:30:42;3.60;99.90
40287;DHT22;25998;46.604;13.610;2023-03-08T04:33:54;3.50;99.90
40287;DHT22;25998;46.604;13.610;2023-03-08T04:37:05;3.50;99.90
40287;DHT22;25998;46.604;13.610;2023-03-08T04:40:16;3.50;99.90
40287;DHT22;25998;46.604;13.610;2023-03-08T04:43:27;3.50;99.90
40287;DHT22;25998;46.604;13.610;2023-03-08T04:46:38;3.50;99.90
40287;DHT22;25998;46.604;13.610;2023-03-08T04:49:49;3.50;99.90
40287;DHT22;25998;46.604;13.610;2023-03-08T04:53:00;3.50;99.90
40287;DHT22;25998;46.604;13.610;2023-03-08T04:56:13;3.50;99.90
40287;DHT22;25998;46.604;13.610;2023-03-08T04:59:24;3.60;99.90
40287;DHT22;25998;46.604;13.610;2023-03-08T05:02:35;3.70;99.90
40287;DHT22;25998;46.604;13.610;2023-03-08T05:05:52;3.80;99.90
40287;DHT22;25998;46.604;13.610;2023-03-08T05:09:03;3.80;99.90
40287;DHT22;25998;46.604;13.610;2023-03-08T05:12:14;3.90;99.90
40287;DHT22;25998;46.604;13.610;2023-03-08T05:15:25;3.70;99.90
40287;DHT22;25998;46.604;13.610;2023-03-08T05:18:36;3.60;99.90
40287;DHT22;25998;46.604;13.610;2023-03-08T05:21:47;3.50;99.90
40287;DHT22;25998;46.604;13.610;2023-03-08T05:24:58;3.40;99.90
40287;DHT22;25998;46.604;13.610;2023-03-08T05:28:09;3.40;99.90
40287;DHT22;25998;46.604;13.610;2023-03-08T05:31:25;3.40;99.90
40287;DHT22;25998;46.604;13.610;2023-03-08T05:34:36;3.40;99.90
40287;DHT22;25998;46.604;13.610;2023-03-08T05:37:47;3.40;99.90
40287;DHT22;25998;46.604;13.610;2023-03-08T05:41:06;3.40;99.90
40287;DHT22;25998;46.604;13.610;2023-03-08T05:44:17;3.40;99.90
40287;DHT22;25998;46.604;13.610;2023-03-08T05:47:28;3.50;99.90
40287;DHT22;25998;46.604;13.610;2023-03-08T05:50:39;3.60;99.90
40287;DHT22;25998;46.604;13.610;2023-03-08T05:53:50;3.60;99.90
40287;DHT22;25998;46.604;13.610;2023-03-08T05:57:01;3.60;99.90
40287;DHT22;25998;46.604;13.610;2023-03-08T06:00:13;3.60;99.90
40287;DHT22;25998;46.604;13.610;2023-03-08T06:03:24;3.60;99.90
40287;DHT22;25998;46.604;13.610;2023-03-08T06:06:35;3.60;99.90
40287;DHT22;25998;46.604;13.610;2023-03-08T06:09:46;3.60;99.90
40287;DHT22;25998;46.604;13.610;2023-03-08T06:12:57;3.70;99.90
40287;DHT22;25998;46.604;13.610;2023-03-08T06:16:08;3.70;99.90
40287;DHT22;25998;46.604;13.610;2023-03-08T06:19:19;3.80;99.90
40287;DHT22;25998;46.604;13.610;2023-03-08T06:22:30;3.70;99.90
40287;DHT22;25998;46.604;13.610;2023-03-08T06:25:42;3.70;99.90
40287;DHT22;25998;46.604;13.610;2023-03-08T06:28:53;3.70;99.90
40287;DHT22;25998;46.604;13.610;2023-03-08T06:32:05;3.80;99.90
40287;DHT22;25998;46.604;13.610;2023-03-08T06:35:16;3.80;99.90
40287;DHT22;25998;46.604;13.610;2023-03-08T06:38:28;3.80;99.90
40287;DHT22;25998;46.604;13.610;2023-03-08T06:41:39;3.80;99.90
40287;DHT22;25998;46.604;13.610;2023-03-08T06:44:50;3.90;99.90
40287;DHT22;25998;46.604;13.610;2023-03-08T06:48:01;3.90;99.90
40287;DHT22;25998;46.604;13.610;2023-03-08T06:51:14;3.90;99.90
40287;DHT22;25998;46.604;13.610;2023-03-08T06:54:25;4.00;99.90
40287;DHT22;25998;46.604;13.610;2023-03-08T06:57:36;4.10;99.90
40287;DHT22;25998;46.604;13.610;2023-03-08T07:00:47;4.20;99.90
40287;DHT22;25998;46.604;13.610;2023-03-08T07:03:58;4.30;99.90
40287;DHT22;25998;46.604;13.610;2023-03-08T07:07:09;4.40;99.90
40287;DHT22;25998;46.604;13.610;2023-03-08T07:10:21;4.60;99.90
40287;DHT22;25998;46.604;13.610;2023-03-08T07:13:35;4.70;99.90
40287;DHT22;25998;46.604;13.610;2023-03-08T07:16:48;4.80;99.90
40287;DHT22;25998;46.604;13.610;2023-03-08T07:19:59;4.90;99.90
40287;DHT22;25998;46.604;13.610;2023-03-08T07:23:10;5.10;99.90
40287;DHT22;25998;46.604;13.610;2023-03-08T07:26:21;5.20;99.90
40287;DHT22;25998;46.604;13.610;2023-03-08T07:29:32;5.20;99.90
40287;DHT22;25998;46.604;13.610;2023-03-08T07:32:43;5.20;99.90
40287;DHT22;25998;46.604;13.610;2023-03-08T07:35:54;5.10;99.90
40287;DHT22;25998;46.604;13.610;2023-03-08T07:39:05;5.10;99.90
40287;DHT22;25998;46.604;13.610;2023-03-08T07:42:16;5.20;99.90
40287;DHT22;25998;46.604;13.610;2023-03-08T07:45:30;5.40;99.90
40287;DHT22;25998;46.604;13.610;2023-03-08T07:48:41;5.50;99.90
40287;DHT22;25998;46.604;13.610;2023-03-08T07:51:52;5.50;99.90
40287;DHT22;25998;46.604;13.610;2023-03-08T07:55:04;5.40;99.90
40287;DHT22;25998;46.604;13.610;2023-03-08T07:58:18;5.30;99.90
40287;DHT22;25998;46.604;13.610;2023-03-08T08:01:31;5.30;99.90
40287;DHT22;25998;46.604;13.610;2023-03-08T08:04:45;5.40;99.90
40287;DHT22;25998;46.604;13.610;2023-03-08T08:07:58;5.50;99.90
40287;DHT22;25998;46.604;13.610;2023-03-08T08:11:13;5.50;99.90
40287;DHT22;25998;46.604;13.610;2023-03-08T08:14:24;5.50;99.90
40287;DHT22;25998;46.604;13.610;2023-03-08T08:17:38;5.60;99.90
40287;DHT22;25998;46.604;13.610;2023-03-08T08:20:49;5.60;99.90
40287;DHT22;25998;46.604;13.610;2023-03-08T08:24:00;5.80;99.90
40287;DHT22;25998;46.604;13.610;2023-03-08T08:27:11;6.00;99.90
40287;DHT22;25998;46.604;13.610;2023-03-08T08:30:23;6.00;99.90
40287;DHT22;25998;46.604;13.610;2023-03-08T08:33:34;6.20;99.90
40287;DHT22;25998;46.604;13.610;2023-03-08T08:36:48;6.40;99.90
40287;DHT22;25998;46.604;13.610;2023-03-08T08:40:02;6.50;99.90
40287;DHT22;25998;46.604;13.610;2023-03-08T08:43:17;6.50;99.90
40287;DHT22;25998;46.604;13.610;2023-03-08T08:46:29;6.80;99.90
40287;DHT22;25998;46.604;13.610;2023-03-08T08:49:50;7.10;99.90
40287;DHT22;25998;46.604;13.610;2023-03-08T08:53:01;7.30;99.90
40287;DHT22;25998;46.604;13.610;2023-03-08T08:56:19;7.50;99.90
40287;DHT22;25998;46.604;13.610;2023-03-08T08:59:31;7.70;99.90
40287;DHT22;25998;46.604;13.610;2023-03-08T09:02:44;7.70;99.90
40287;DHT22;25998;46.604;13.610;2023-03-08T09:05:57;7.70;99.90
40287;DHT22;25998;46.604;13.610;2023-03-08T09:09:08;7.70;99.90
40287;DHT22;25998;46.604;13.610;2023-03-08T09:12:22;7.70;99.90
40287;DHT22;25998;46.604;13.610;2023-03-08T09:15:36;7.80;99.90
40287;DHT22;25998;46.604;13.610;2023-03-08T09:18:51;8.00;99.90
40287;DHT22;25998;46.604;13.610;2023-03-08T09:22:03;8.10;99.90
40287;DHT22;25998;46.604;13.610;2023-03-08T09:25:17;8.30;99.90
40287;DHT22;25998;46.604;13.610;2023-03-08T09:28:33;8.40;99.90
40287;DHT22;25998;46.604;13.610;2023-03-08T09:31:47;8.40;99.90
40287;DHT22;25998;46.604;13.610;2023-03-08T09:35:07;8.20;99.90
40287;DHT22;25998;46.604;13.610;2023-03-08T09:38:35;8.20;99.90
40287;DHT22;25998;46.604;13.610;2023-03-08T09:42:20;8.50;99.90
40287;DHT22;25998;46.604;13.610;2023-03-08T09:45:41;8.50;99.90
40287;DHT22;25998;46.604;13.610;2023-03-08T09:48:57;8.70;99.90
40287;DHT22;25998;46.604;13.610;2023-03-08T09:55:41;8.80;99.90
40287;DHT22;25998;46.604;13.610;2023-03-08T09:58:57;8.80;99.90
40287;DHT22;25998;46.604;13.610;2023-03-08T10:02:39;8.90;99.90
40287;DHT22;25998;46.604;13.610;2023-03-08T10:06:20;8.90;99.90
40287;DHT22;25998;46.604;13.610;2023-03-08T10:09:56;8.90;99.90
40287;DHT22;25998;46.604;13.610;2023-03-08T10:16:48;8.90;99.90
40287;DHT22;25998;46.604;13.610;2023-03-08T10:23:48;8.80;99.90
40287;DHT22;25998;46.604;13.610;2023-03-08T10:27:23;8.70;99.90
40287;DHT22;25998;46.604;13.610;2023-03-08T10:31:18;8.80;99.90
40287;DHT22;25998;46.604;13.610;2023-03-08T10:34:24;8.80;99.90
40287;DHT22;25998;46.604;13.610;2023-03-08T10:37:41;8.80;99.90
40287;DHT22;25998;46.604;13.610;2023-03-08T10:41:24;8.90;99.90
40287;DHT22;25998;46.604;13.610;2023-03-08T10:48:02;9.10;99.90
40287;DHT22;25998;46.604;13.610;2023-03-08T10:51:27;9.00;99.90
40287;DHT22;25998;46.604;13.610;2023-03-08T10:54:38;9.20;99.90
40287;DHT22;25998;46.604;13.610;2023-03-08T10:58:00;9.40;99.90
40287;DHT22;25998;46.604;13.610;2023-03-08T11:01:29;9.60;99.90
40287;DHT22;25998;46.604;13.610;2023-03-08T11:04:57;9.70;99.90
40287;DHT22;25998;46.604;13.610;2023-03-08T11:08:17;9.60;99.90
40287;DHT22;25998;46.604;13.610;2023-03-08T11:11:39;9.60;99.90
40287;DHT22;25998;46.604;13.610;2023-03-08T11:14:51;9.50;99.90
40287;DHT22;25998;46.604;13.610;2023-03-08T11:19:09;9.60;99.90
40287;DHT22;25998;46.604;13.610;2023-03-08T11:25:38;9.70;99.90
40287;DHT22;25998;46.604;13.610;2023-03-08T11:36:20;9.50;99.90
40287;DHT22;25998;46.604;13.610;2023-03-08T11:39:53;9.70;99.90
40287;DHT22;25998;46.604;13.610;2023-03-08T11:57:15;10.40;97.80
40287;DHT22;25998;46.604;13.610;2023-03-08T12:00:33;10.50;97.80
40287;DHT22;25998;46.604;13.610;2023-03-08T12:03:55;10.50;98.00
40287;DHT22;25998;46.604;13.610;2023-03-08T12:07:38;10.60;97.20
40287;DHT22;25998;46.604;13.610;2023-03-08T12:10:51;10.50;96.40
40287;DHT22;25998;46.604;13.610;2023-03-08T12:14:17;10.60;96.90
40287;DHT22;25998;46.604;13.610;2023-03-08T12:17:35;10.70;97.00
40287;DHT22;25998;46.604;13.610;2023-03-08T12:20:49;10.80;97.10
40287;DHT22;25998;46.604;13.610;2023-03-08T12:31:27;10.80;95.80
40287;DHT22;25998;46.604;13.610;2023-03-08T12:34:44;10.80;96.40
40287;DHT22;25998;46.604;13.610;2023-03-08T12:41:31;11.00;96.10
40287;DHT22;25998;46.604;13.610;2023-03-08T12:44:47;11.10;96.10
40287;DHT22;25998;46.604;13.610;2023-03-08T12:51:33;11.30;96.10
40287;DHT22;25998;46.604;13.610;2023-03-08T12:55:23;11.20;94.70
40287;DHT22;25998;46.604;13.610;2023-03-08T12:58:52;11.40;94.80
40287;DHT22;25998;46.604;13.610;2023-03-08T13:02:27;11.30;95.00
40287;DHT22;25998;46.604;13.610;2023-03-08T13:05:42;11.10;95.50
40287;DHT22;25998;46.604;13.610;2023-03-08T13:12:31;11.20;94.00
40287;DHT22;25998;46.604;13.610;2023-03-08T13:19:39;11.00;95.30
40287;DHT22;25998;46.604;13.610;2023-03-08T13:23:03;10.90;96.00
40287;DHT22;25998;46.604;13.610;2023-03-08T13:26:36;11.00;94.80
40287;DHT22;25998;46.604;13.610;2023-03-08T13:29:50;11.00;95.00
40287;DHT22;25998;46.604;13.610;2023-03-08T13:33:08;11.20;95.60
40287;DHT22;25998;46.604;13.610;2023-03-08T13:36:32;11.30;94.90
40287;DHT22;25998;46.604;13.610;2023-03-08T13:39:51;11.10;95.10
40287;DHT22;25998;46.604;13.610;2023-03-08T13:43:04;11.10;95.00
40287;DHT22;25998;46.604;13.610;2023-03-08T13:46:21;11.10;94.70
40287;DHT22;25998;46.604;13.610;2023-03-08T13:49:41;10.90;95.00
40287;DHT22;25998;46.604;13.610;2023-03-08T13:52:56;10.90;95.50
40287;DHT22;25998;46.604;13.610;2023-03-08T13:56:28;10.90;94.40
40287;DHT22;25998;46.604;13.610;2023-03-08T13:59:57;10.90;95.00
40287;DHT22;25998;46.604;13.610;2023-03-08T14:03:21;10.80;95.00
40287;DHT22;25998;46.604;13.610;2023-03-08T14:06:32;11.00;94.90
40287;DHT22;25998;46.604;13.610;2023-03-08T14:09:43;11.00;95.00
40287;DHT22;25998;46.604;13.610;2023-03-08T14:12:55;11.10;95.50
40287;DHT22;25998;46.604;13.610;2023-03-08T14:16:28;11.00;94.70
40287;DHT22;25998;46.604;13.610;2023-03-08T14:19:52;11.10;95.00
40287;DHT22;25998;46.604;13.610;2023-03-08T14:23:03;11.10;94.30
40287;DHT22;25998;46.604;13.610;2023-03-08T14:26:37;11.00;94.90
40287;DHT22;25998;46.604;13.610;2023-03-08T14:30:09;11.00;94.60
40287;DHT22;25998;46.604;13.610;2023-03-08T14:33:21;10.90;94.30
40287;DHT22;25998;46.604;13.610;2023-03-08T14:37:03;10.90;94.90
40287;DHT22;25998;46.604;13.610;2023-03-08T14:40:45;10.90;94.90
40287;DHT22;25998;46.604;13.610;2023-03-08T14:44:13;10.90;95.30
40287;DHT22;25998;46.604;13.610;2023-03-08T14:47:32;10.90;95.10
40287;DHT22;25998;46.604;13.610;2023-03-08T14:50:58;10.90;95.00
40287;DHT22;25998;46.604;13.610;2023-03-08T14:54:31;10.80;94.20
40287;DHT22;25998;46.604;13.610;2023-03-08T14:57:42;10.90;95.80
40287;DHT22;25998;46.604;13.610;2023-03-08T15:00:57;10.80;94.30
40287;DHT22;25998;46.604;13.610;2023-03-08T15:04:16;10.60;94.50
40287;DHT22;25998;46.604;13.610;2023-03-08T15:07:32;10.40;94.80
40287;DHT22;25998;46.604;13.610;2023-03-08T15:10:50;10.50;94.40
40287;DHT22;25998;46.604;13.610;2023-03-08T15:14:04;10.30;94.90
40287;DHT22;25998;46.604;13.610;2023-03-08T15:17:15;10.30;95.00
40287;DHT22;25998;46.604;13.610;2023-03-08T15:20:29;10.50;94.80
40287;DHT22;25998;46.604;13.610;2023-03-08T15:23:51;10.50;95.10
40287;DHT22;25998;46.604;13.610;2023-03-08T15:27:13;10.50;95.00
40287;DHT22;25998;46.604;13.610;2023-03-08T15:30:38;10.70;95.30
40287;DHT22;25998;46.604;13.610;2023-03-08T15:33:49;10.70;95.70
40287;DHT22;25998;46.604;13.610;2023-03-08T15:37:00;10.60;95.90
40287;DHT22;25998;46.604;13.610;2023-03-08T15:40:18;10.70;95.90
40287;DHT22;25998;46.604;13.610;2023-03-08T15:43:34;10.70;95.80
40287;DHT22;25998;46.604;13.610;2023-03-08T15:46:50;10.70;95.80
40287;DHT22;25998;46.604;13.610;2023-03-08T15:50:02;10.60;95.90
40287;DHT22;25998;46.604;13.610;2023-03-08T15:53:14;10.60;96.00
40287;DHT22;25998;46.604;13.610;2023-03-08T15:56:45;10.50;95.90
40287;DHT22;25998;46.604;13.610;2023-03-08T15:59:56;10.50;96.30
40287;DHT22;25998;46.604;13.610;2023-03-08T16:03:12;10.40;96.10
40287;DHT22;25998;46.604;13.610;2023-03-08T16:06:40;10.40;96.70
40287;DHT22;25998;46.604;13.610;2023-03-08T16:10:01;10.30;96.80
40287;DHT22;25998;46.604;13.610;2023-03-08T16:13:24;10.40;97.00
40287;DHT22;25998;46.604;13.610;2023-03-08T16:16:46;10.30;96.70
40287;DHT22;25998;46.604;13.610;2023-03-08T16:20:07;10.30;96.80
40287;DHT22;25998;46.604;13.610;2023-03-08T16:23:39;10.20;97.00
40287;DHT22;25998;46.604;13.610;2023-03-08T16:26:56;10.20;97.40
40287;DHT22;25998;46.604;13.610;2023-03-08T16:30:14;10.10;98.00
40287;DHT22;25998;46.604;13.610;2023-03-08T16:33:31;10.10;97.60
40287;DHT22;25998;46.604;13.610;2023-03-08T16:36:42;10.00;97.70
40287;DHT22;25998;46.604;13.610;2023-03-08T16:40:02;10.10;98.10
40287;DHT22;25998;46.604;13.610;2023-03-08T16:43:19;10.00;98.50
40287;DHT22;25998;46.604;13.610;2023-03-08T16:46:30;10.00;98.70
40287;DHT22;25998;46.604;13.610;2023-03-08T16:49:52;10.00;98.90
40287;DHT22;25998;46.604;13.610;2023-03-08T16:53:13;9.90;99.20
40287;DHT22;25998;46.604;13.610;2023-03-08T16:56:45;9.80;99.00
40287;DHT22;25998;46.604;13.610;2023-03-08T17:03:41;9.70;98.70
40287;DHT22;25998;46.604;13.610;2023-03-08T17:07:00;9.70;99.00
40287;DHT22;25998;46.604;13.610;2023-03-08T17:10:13;9.80;98.70
40287;DHT22;25998;46.604;13.610;2023-03-08T17:13:29;9.80;98.50
40287;DHT22;25998;46.604;13.610;2023-03-08T17:16:50;9.80;99.10
40287;DHT22;25998;46.604;13.610;2023-03-08T17:20:05;9.80;99.10
40287;DHT22;25998;46.604;13.610;2023-03-08T17:23:44;9.80;99.40
40287;DHT22;25998;46.604;13.610;2023-03-08T17:26:56;9.60;99.70
40287;DHT22;25998;46.604;13.610;2023-03-08T17:30:08;9.50;99.40
40287;DHT22;25998;46.604;13.610;2023-03-08T17:33:48;9.50;99.10
40287;DHT22;25998;46.604;13.610;2023-03-08T17:37:12;9.60;99.60
40287;DHT22;25998;46.604;13.610;2023-03-08T17:40:41;9.60;99.60
40287;DHT22;25998;46.604;13.610;2023-03-08T17:43:55;9.60;99.40
40287;DHT22;25998;46.604;13.610;2023-03-08T17:47:13;9.50;99.90
40287;DHT22;25998;46.604;13.610;2023-03-08T17:50:31;9.40;99.80
40287;DHT22;25998;46.604;13.610;2023-03-08T17:53:49;9.40;99.70
40287;DHT22;25998;46.604;13.610;2023-03-08T17:57:10;9.50;99.10
40287;DHT22;25998;46.604;13.610;2023-03-08T18:00:24;9.50;99.60
40287;DHT22;25998;46.604;13.610;2023-03-08T18:03:48;9.40;99.90
40287;DHT22;25998;46.604;13.610;2023-03-08T18:07:17;9.40;99.90
40287;DHT22;25998;46.604;13.610;2023-03-08T18:10:41;9.30;99.90
40287;DHT22;25998;46.604;13.610;2023-03-08T18:13:59;9.50;99.60
40287;DHT22;25998;46.604;13.610;2023-03-08T18:17:14;9.60;99.30
40287;DHT22;25998;46.604;13.610;2023-03-08T18:20:30;9.60;99.40
40287;DHT22;25998;46.604;13.610;2023-03-08T18:23:52;9.70;99.40
40287;DHT22;25998;46.604;13.610;2023-03-08T18:27:04;9.60;99.90
40287;DHT22;25998;46.604;13.610;2023-03-08T18:30:25;9.50;99.90
40287;DHT22;25998;46.604;13.610;2023-03-08T18:33:39;9.30;99.90
40287;DHT22;25998;46.604;13.610;2023-03-08T18:36:54;9.40;99.90
40287;DHT22;25998;46.604;13.610;2023-03-08T18:40:06;9.40;99.90
40287;DHT22;25998;46.604;13.610;2023-03-08T18:43:21;9.50;99.90
40287;DHT22;25998;46.604;13.610;2023-03-08T18:46:33;9.50;99.90
40287;DHT22;25998;46.604;13.610;2023-03-08T18:49:44;9.40;99.90
40287;DHT22;25998;46.604;13.610;2023-03-08T18:52:54;9.30;99.90
40287;DHT22;25998;46.604;13.610;2023-03-08T18:56:06;9.30;99.90
40287;DHT22;25998;46.604;13.610;2023-03-08T18:59:17;9.30;99.90
40287;DHT22;25998;46.604;13.610;2023-03-08T19:02:28;9.40;99.90
40287;DHT22;25998;46.604;13.610;2023-03-08T19:05:39;9.30;99.90
40287;DHT22;25998;46.604;13.610;2023-03-08T19:08:50;9.40;99.90
40287;DHT22;25998;46.604;13.610;2023-03-08T19:12:01;9.40;99.90
40287;DHT22;25998;46.604;13.610;2023-03-08T19:15:15;9.40;99.90
40287;DHT22;25998;46.604;13.610;2023-03-08T19:18:26;9.30;99.90
40287;DHT22;25998;46.604;13.610;2023-03-08T19:21:40;9.20;99.90
40287;DHT22;25998;46.604;13.610;2023-03-08T19:24:51;9.10;99.90
40287;DHT22;25998;46.604;13.610;2023-03-08T19:28:02;9.10;99.90
40287;DHT22;25998;46.604;13.610;2023-03-08T19:31:16;9.20;99.90
40287;DHT22;25998;46.604;13.610;2023-03-08T19:34:29;9.20;99.90
40287;DHT22;25998;46.604;13.610;2023-03-08T19:37:41;9.20;99.90
40287;DHT22;25998;46.604;13.610;2023-03-08T19:40:52;9.30;99.90
40287;DHT22;25998;46.604;13.610;2023-03-08T19:44:03;9.30;99.90
40287;DHT22;25998;46.604;13.610;2023-03-08T19:47:17;9.20;99.90
40287;DHT22;25998;46.604;13.610;2023-03-08T19:50:30;9.20;99.90
40287;DHT22;25998;46.604;13.610;2023-03-08T19:53:47;9.20;99.90
40287;DHT22;25998;46.604;13.610;2023-03-08T19:57:11;9.20;99.90
40287;DHT22;25998;46.604;13.610;2023-03-08T20:00:22;9.20;99.90
40287;DHT22;25998;46.604;13.610;2023-03-08T20:03:35;9.10;99.90
40287;DHT22;25998;46.604;13.610;2023-03-08T20:06:47;9.20;99.90
40287;DHT22;25998;46.604;13.610;2023-03-08T20:09:58;9.30;99.90
40287;DHT22;25998;46.604;13.610;2023-03-08T20:13:09;9.20;99.90
40287;DHT22;25998;46.604;13.610;2023-03-08T20:16:21;9.20;99.90
40287;DHT22;25998;46.604;13.610;2023-03-08T20:19:40;9.20;99.90
40287;DHT22;25998;46.604;13.610;2023-03-08T20:22:51;9.20;99.90
40287;DHT22;25998;46.604;13.610;2023-03-08T20:26:05;9.20;99.90
40287;DHT22;25998;46.604;13.610;2023-03-08T20:29:16;9.20;99.90
40287;DHT22;25998;46.604;13.610;2023-03-08T20:32:27;9.20;99.90
40287;DHT22;25998;46.604;13.610;2023-03-08T20:35:38;9.30;99.90
40287;DHT22;25998;46.604;13.610;2023-03-08T20:38:52;9.30;99.90
40287;DHT22;25998;46.604;13.610;2023-03-08T20:42:07;9.30;99.90
40287;DHT22;25998;46.604;13.610;2023-03-08T20:45:18;9.20;99.90
40287;DHT22;25998;46.604;13.610;2023-03-08T20:48:34;9.20;99.90
40287;DHT22;25998;46.604;13.610;2023-03-08T20:51:47;9.10;99.90
40287;DHT22;25998;46.604;13.610;2023-03-08T20:54:58;9.10;99.90
40287;DHT22;25998;46.604;13.610;2023-03-08T20:58:09;9.20;99.90
40287;DHT22;25998;46.604;13.610;2023-03-08T21:01:23;9.10;99.90
40287;DHT22;25998;46.604;13.610;2023-03-08T21:04:37;8.90;99.90
40287;DHT22;25998;46.604;13.610;2023-03-08T21:07:48;8.90;99.90
40287;DHT22;25998;46.604;13.610;2023-03-08T21:10:58;8.90;99.90
40287;DHT22;25998;46.604;13.610;2023-03-08T21:14:10;8.90;99.90
40287;DHT22;25998;46.604;13.610;2023-03-08T21:17:21;8.90;99.90
40287;DHT22;25998;46.604;13.610;2023-03-08T21:20:36;8.80;99.90
40287;DHT22;25998;46.604;13.610;2023-03-08T21:23:47;8.70;99.90
40287;DHT22;25998;46.604;13.610;2023-03-08T21:26:59;8.70;99.90
40287;DHT22;25998;46.604;13.610;2023-03-08T21:30:10;8.80;99.90
40287;DHT22;25998;46.604;13.610;2023-03-08T21:33:24;8.80;99.90
40287;DHT22;25998;46.604;13.610;2023-03-08T21:36:36;8.80;99.90
40287;DHT22;25998;46.604;13.610;2023-03-08T21:39:47;8.80;99.90
40287;DHT22;25998;46.604;13.610;2023-03-08T21:43:00;8.90;99.90